METAR Data
IDs: Format: Raw Decoded Include TAF

Data at: 1718 UTC 18 Feb 2019

METAR for:KLRJ (Le Mars Muni, IA, US)
Text:KLRJ 181715Z AUTO 29008KT 10SM CLR M13/M16 A3049 RMK AO2
Temperature:-13.0°C ( 9°F)
Dewpoint:-16.0°C ( 3°F) [RH = 78%]
Pressure (altimeter):30.49 inches Hg (1032.6 mb)
Winds:from the WNW (290 degrees) at 9 MPH (8 knots; 4.1 m/s)
Visibility:10 or more sm (16+ km)
Ceiling:at least 12,000 feet AGL
Clouds:sky clear below 12,000 feet AGL
QC Flag:automated observation with no human augmentation